Guatay (79, 629) Station Data

Red Flag Warning: No
Fire Weather Zone: 258
SDGE Region: Mountain Empire
Lat/Lon: 32.855/-116.574

Observations

Time Wind Speed/Gust Temp(F) RH Fuel Moist Fuel Temp(F) Dewpt(F) Tmax(F) Tmin(F) Accum Precip 10-min Precip SL Press(mb)
5/24 8:20am 85 3 G 4 66° 38% - - 40° 70.5° 59° - - -
5/24 8:10am 86 2 G 4 65° 35% - - 36° 70.5° 59° - - -
5/24 8:00am 58 2 G 5 65° 34% - - 36° 70.5° 59° - - -
5/24 7:50am 317 4 G 7 65° 29% - - 32° 70.5° 59° - - -
5/24 7:40am 304 6 G 8 63° 28% - - 30° 70.5° 59° - - -
5/24 7:30am 293 4 G 6 65° 31% - - 33° 70.5° 59° - - -
5/24 7:20am 308 1 G 3 69° 19% - - 25° 70.5° 59° - - -
5/24 7:10am 88 3 G 4 66° 21% - - 25° 67.7° 59° - - -
5/24 7:00am 80 5 G 6 66° 20% - - 24° 67.4° 59° - - -
5/24 6:50am 76 5 G 6 65° 21% - - 24° 67.4° 59° - - -
5/24 6:40am 79 6 G 8 65° 20% - - 23° 67.4° 59° - - -
5/24 6:30am 84 7 G 9 65° 20% - - 23° 67.4° 59° - - -
5/24 6:20am 80 6 G 8 64° 20% - - 23° 67.4° 59° - - -
5/24 6:10am 84 6 G 7 63° 21% - - 23° 67.4° 59° - - -
5/24 6:00am 79 6 G 8 64° 22% - - 24° 67.4° 59° - - -
5/24 5:50am 77 6 G 7 63° 23% - - 25° 67.4° 59° - - -
5/24 5:40am 80 6 G 7 63° 24% - - 26° 67.4° 59° - - -
5/24 5:30am 76 6 G 8 63° 25% - - 26° 67.4° 59° - - -
5/24 5:20am 81 6 G 8 61° 25% - - 25° 67.4° 59° - - -
5/24 5:10am 81 6 G 8 61° 24% - - 24° 67.4° 59° - - -
5/24 5:00am 85 6 G 7 60° 25% - - 24° 67.4° 59° - - -
5/24 4:50am 90 7 G 8 59° 25% - - 24° 67.4° 59° - - -
5/24 4:40am 88 6 G 8 61° 23% - - 23° 67.4° 60° - - -
5/24 4:30am 88 5 G 6 61° 22% - - 22° 67.4° 60° - - -
5/24 4:20am 86 4 G 6 61° 22% - - 23° 67.4° 60° - - -
5/24 4:10am 83 5 G 7 61° 22% - - 22° 67.4° 60° - - -
5/24 4:00am 79 6 G 7 62° 21% - - 22° 67.4° 60° - - -
5/24 3:50am 83 5 G 8 61° 23% - - 23° 67.4° 60° - - -
5/24 3:40am 72 3 G 4 64° 20% - - 21° 67.4° 62.2° - - -
5/24 3:30am 76 3 G 4 64° 19% - - 21° 67.4° 62.2° - - -
5/24 3:20am 83 4 G 5 64° 20% - - 21° 67.4° 62.2° - - -
5/24 3:10am 80 4 G 5 64° 20% - - 22° 67.4° 62.2° - - -
5/24 3:00am 87 5 G 6 64° 20% - - 22° 67.4° 62.2° - - -
5/24 2:50am 89 6 G 7 64° 19% - - 21° 67.4° 62.2° - - -
5/24 2:40am 86 6 G 8 65° 19% - - 21° 67.4° 62.2° - - -
5/24 2:30am 81 5 G 6 65° 19% - - 22° 67.4° 62.2° - - -
5/24 2:20am 82 6 G 8 64° 20% - - 22° 67.4° 62.2° - - -
5/24 2:10am 84 6 G 8 65° 21% - - 24° 67.4° 62.2° - - -
5/24 2:00am 88 6 G 7 65° 23% - - 27° 67.4° 62.2° - - -
5/24 1:50am 78 6 G 7 65° 25% - - 29° 67.4° 62.2° - - -
5/24 1:40am 81 6 G 7 65° 26% - - 29° 67.4° 62.2° - - -
5/24 1:30am 84 7 G 9 63° 29% - - 31° 67.4° 62.2° - - -
5/24 1:20am 84 6 G 8 63° 29% - - 30° 67.4° 62.2° - - -
5/24 1:10am 84 6 G 7 64° 26% - - 28° 67.4° 63° - - -
5/24 1:00am 85 4 G 6 64° 24% - - 26° 67.4° 63° - - -
5/24 12:50am 89 3 G 4 65° 22% - - 25° 67.4° 63.8° - - -
5/24 12:40am 85 3 G 4 65° 22% - - 25° 67.4° 64.9° - - -
5/24 12:30am 82 3 G 4 66° 20% - - 23° 67.4° 65.3° - - -
5/24 12:20am 88 4 G 5 66° 19% - - 22° 67.4° 65.3° - - -
5/24 12:10am 84 4 G 5 66° 18% - - 21° 67.4° 65.7° - - -
5/24 12:00am 81 2 G 3 68° 16% - - 20° 85.3° 62.9° - - -
5/23 11:50pm 84 3 G 4 67° 16% - - 20° 85.3° 62.9° - - -
5/23 11:40pm 79 4 G 5 67° 18% - - 22° 85.3° 62.9° - - -
5/23 11:30pm 82 4 G 5 67° 17% - - 21° 85.3° 62.9° - - -
5/23 11:20pm 83 5 G 6 67° 16% - - 20° 85.3° 62.9° - - -
5/23 11:10pm 81 6 G 8 68° 17% - - 21° 85.3° 62.9° - - -
5/23 11:00pm 79 6 G 8 68° 17% - - 22° 85.3° 62.9° - - -
5/23 10:50pm 80 6 G 8 68° 18% - - 23° 85.3° 62.9° - - -
5/23 10:40pm 78 6 G 8 68° 18% - - 23° 85.3° 62.9° - - -
5/23 10:30pm 81 6 G 8 68° 20% - - 25° 85.3° 62.9° - - -
5/23 10:20pm 83 6 G 8 68° 21% - - 26° 85.3° 62.9° - - -
5/23 10:10pm 85 5 G 7 67° 24% - - 29° 85.3° 62.9° - - -
5/23 10:00pm 82 5 G 7 68° 24% - - 30° 85.3° 62.9° - - -
5/23 9:50pm 82 6 G 7 68° 27% - - 33° 85.3° 62.9° - - -
5/23 9:40pm 79 6 G 8 68° 30% - - 36° 85.3° 62.9° - - -
5/23 9:30pm 81 6 G 8 68° 29% - - 35° 85.3° 62.9° - - -
5/23 9:20pm 83 6 G 7 68° 30% - - 36° 85.3° 62.9° - - -
5/23 9:10pm 79 5 G 7 68° 34% - - 39° 85.3° 62.9° - - -
5/23 9:00pm 79 5 G 7 68° 40% - - 43° 85.3° 62.9° - - -
5/23 8:50pm 87 5 G 6 66° 44% - - 44° 85.3° 62.9° - - -
5/23 8:40pm 87 5 G 6 67° 45% - - 44° 85.3° 62.9° - - -
5/23 8:30pm 83 5 G 6 67° 45% - - 45° 85.3° 62.9° - - -
5/23 8:20pm 82 5 G 7 67° 46% - - 45° 85.3° 62.9° - - -
5/23 8:10pm 87 4 G 6 67° 47% - - 46° 85.3° 62.9° - - -
5/23 8:00pm 102 1 G 4 70° 40% - - 45° 85.3° 62.9° - - -
5/23 7:50pm 248 0 G 1 72° 37% - - 44° 85.3° 62.9° - - -
5/23 7:40pm 279 1 G 2 73° 35% - - 44° 85.3° 62.9° - - -
5/23 7:30pm 270 2 G 4 74° 34% - - 44° 85.3° 62.9° - - -
5/23 7:20pm 272 3 G 5 74° 33% - - 44° 85.3° 62.9° - - -
5/23 7:10pm 274 4 G 7 75° 32% - - 43° 85.3° 62.9° - - -
5/23 7:00pm 264 6 G 10 75° 32% - - 43° 85.3° 62.9° - - -
5/23 6:50pm 263 7 G 11 76° 32% - - 43° 85.3° 62.9° - - -
5/23 6:40pm 252 8 G 11 76° 32% - - 44° 85.3° 62.9° - - -
5/23 6:30pm 254 9 G 12 77° 33% - - 46° 85.3° 62.9° - - -
5/23 6:20pm 261 8 G 11 78° 33% - - 47° 85.3° 62.9° - - -
5/23 6:10pm 285 7 G 10 79° 30% - - 45° 85.3° 62.9° - - -
5/23 6:00pm 265 6 G 10 79° 31% - - 46° 85.3° 62.9° - - -
5/23 5:50pm 283 5 G 9 79° 32% - - 47° 85.3° 62.9° - - -
5/23 5:40pm 288 6 G 10 79° 33% - - 47° 85.3° 62.9° - - -
5/23 5:30pm 270 6 G 10 78° 35% - - 49° 85.3° 62.9° - - -
5/23 5:20pm 263 6 G 11 79° 34% - - 48° 85.3° 62.9° - - -
5/23 5:10pm 278 7 G 11 78° 35% - - 48° 85.3° 62.9° - - -
5/23 5:00pm 272 9 G 12 78° 35% - - 48° 85.3° 62.9° - - -
5/23 4:50pm 273 8 G 14 78° 39% - - 51° 85.3° 62.9° - - -
5/23 4:40pm 268 9 G 16 78° 40% - - 51° 85.3° 62.9° - - -
5/23 4:30pm 263 8 G 14 78° 41% - - 52° 85.3° 62.9° - - -
5/23 4:20pm 270 8 G 13 78° 41% - - 52° 85.3° 62.9° - - -
5/23 4:10pm 277 10 G 14 77° 42% - - 53° 85.3° 62.9° - - -
5/23 4:00pm 277 11 G 17 77° 43% - - 53° 85.3° 62.9° - - -
5/23 3:50pm 278 12 G 18 78° 43% - - 54° 85.3° 62.9° - - -
5/23 3:40pm 277 13 G 20 78° 43% - - 54° 85.3° 62.9° - - -
5/23 3:30pm 262 12 G 21 79° 41% - - 53° 85.3° 62.9° - - -
5/23 3:20pm 273 12 G 18 81° 33% - - 50° 85.3° 62.9° - - -
5/23 3:10pm 274 12 G 18 82° 28% - - 46° 85.3° 62.9° - - -
5/23 3:00pm 269 12 G 19 82° 27% - - 45° 85.3° 62.9° - - -
5/23 2:50pm 268 10 G 17 83° 24% - - 42° 85.3° 62.9° - - -
5/23 2:40pm 273 12 G 20 83° 27% - - 45° 85.3° 62.9° - - -
5/23 2:30pm 270 11 G 18 84° 25% - - 44° 85.3° 62.9° - - -
5/23 2:20pm 267 10 G 18 84° 25% - - 44° 85.3° 62.9° - - -
5/23 2:10pm 268 12 G 20 84° 24% - - 43° 85.3° 62.9° - - -
5/23 2:00pm 276 11 G 17 83° 24% - - 43° 85.3° 62.9° - - -
5/23 1:50pm 275 10 G 16 84° 25% - - 44° 85.3° 62.9° - - -
5/23 1:40pm 264 11 G 16 84° 25% - - 44° 85.3° 62.9° - - -
5/23 1:30pm 254 10 G 18 84° 24% - - 43° 85.3° 62.9° - - -
5/23 1:20pm 263 11 G 19 85° 20% - - 39° 85.3° 62.9° - - -
5/23 1:10pm 261 12 G 17 84° 19% - - 38° 85.1° 62.9° - - -
5/23 1:00pm 279 12 G 18 84° 17% - - 34° 85.1° 62.9° - - -
5/23 12:50pm 275 10 G 18 85° 16% - - 34° 85.1° 62.9° - - -
5/23 12:40pm 292 11 G 16 84° 16% - - 33° 85° 62.9° - - -
5/23 12:30pm 271 9 G 16 84° 16% - - 33° 85° 62.9° - - -
5/23 12:20pm 263 10 G 16 84° 17% - - 34° 85° 62.9° - - -
5/23 12:10pm 277 11 G 18 84° 17% - - 34° 85° 62.9° - - -
5/23 12:00pm 270 8 G 15 84° 16% - - 32° 85° 62.9° - - -
5/23 11:50am 280 7 G 15 84° 16% - - 33° 85° 62.9° - - -
5/23 11:40am 276 7 G 13 84° 15% - - 31° 85° 62.9° - - -
5/23 11:30am 282 8 G 13 85° 15% - - 32° 85° 62.9° - - -
5/23 11:20am 277 8 G 15 84° 14% - - 30° 84.2° 62.9° - - -
5/23 11:10am 253 7 G 13 84° 15% - - 31° 84.2° 62.9° - - -
5/23 11:00am 236 8 G 12 83° 14% - - 30° 83.8° 62.9° - - -
5/23 10:50am 250 9 G 12 83° 15% - - 30° 83.8° 62.9° - - -
5/23 10:40am 241 9 G 13 83° 16% - - 31° 83.8° 62.9° - - -
5/23 10:30am 243 9 G 15 83° 17% - - 34° 83.8° 62.9° - - -
5/23 10:20am 256 8 G 12 83° 16% - - 32° 83.8° 62.9° - - -
5/23 10:10am 257 7 G 10 83° 17% - - 34° 83.8° 62.9° - - -
5/23 10:00am 275 5 G 9 83° 17% - - 33° 83.8° 62.9° - - -
5/23 9:50am 281 6 G 8 83° 15% - - 30° 83.8° 62.9° - - -
5/23 9:40am 276 5 G 8 83° 15% - - 30° 83.8° 62.9° - - -
5/23 9:30am 273 4 G 7 83° 15% - - 30° 83.8° 62.9° - - -
5/23 9:20am 276 2 G 5 83° 15% - - 30° 83.8° 62.9° - - -
5/23 9:10am 295 2 G 4 83° 16% - - 31° 83.8° 62.9° - - -
5/23 9:00am 310 1 G 2 83° 18% - - 34° 83.8° 62.9° - - -
5/23 8:50am 285 0 G 1 83° 20% - - 38° 83.8° 62.9° - - -
5/23 8:40am 112 1 G 2 82° 22% - - 39° 82.3° 62.9° - - -
5/23 8:30am 95 2 G 2 81° 23% - - 40° 81.9° 62.9° - - -
5/23 8:20am 86 2 G 4 80° 24% - - 39° 80.8° 62.9° - - -
5/23 8:10am 83 4 G 4 78° 24% - - 38° 79.3° 62.9° - - -
5/23 8:00am 86 4 G 5 77° 26% - - 39° 77.3° 62.9° - - -
5/23 7:50am 80 5 G 6 75° 26% - - 38° 76.9° 62.9° - - -
5/23 7:40am 87 6 G 7 74° 26% - - 37° 74.9° 62.9° - - -
5/23 7:30am 86 6 G 8 74° 23% - - 34° 74.8° 62.9° - - -
5/23 7:20am 90 7 G 8 73° 24% - - 34° 73.9° 62.9° - - -
5/23 7:10am 86 6 G 9 72° 22% - - 31° 72.9° 62.9° - - -
5/23 7:00am 85 7 G 10 72° 22% - - 31° 72.1° 62.9° - - -
5/23 6:50am 82 7 G 9 71° 21% - - 29° 71.7° 62.9° - - -
5/23 6:40am 82 9 G 11 70° 21% - - 28° 70.5° 62.9° - - -
5/23 6:30am 80 8 G 10 70° 20% - - 27° 70.5° 62.9° - - -
5/23 6:20am 81 8 G 10 69° 20% - - 26° 69.4° 62.9° - - -
5/23 6:10am 81 8 G 10 68° 20% - - 25° 68.7° 62.9° - - -
5/23 6:00am 83 8 G 10 68° 19% - - 24° 68.7° 62.9° - - -